Impacts METAR Board
IDs:

KDTW - Detroit Metro/Wayne, MI, US

Updated at: 0300 UTC 23 May 2018
Potential Impact None Slight Moderate High
Time 22/15Z 22/16Z 22/17Z 22/18Z 22/19Z 22/20Z 22/21Z 22/22Z 22/23Z 23/00Z 23/01Z 23/02Z 23/03Z
Temp64 67 70 74 74 76 74 70 67 65 63 62 59
Dewpt59 60 61 63 62 63 61 58 56 55 54 52 52
Altim29.99 29.99 29.99 29.97 29.95 29.93 29.93 29.96 29.98 29.99 30.00 30.02 30.05
VIS3 3 3 5 6 8 10 10 10 10 10 10 10
CIG6 10 60 80 50 60 -- 30 25 25 30 30 --
CoverOVCOVCOVCBKNOVCBKNSCTBKNBKNOVCBKNBKNSCT
FltCatIFRMVFRMVFRMVFRVFRVFRVFRMVFRMVFRMVFRMVFRMVFRVFR
WXHZHZHZHZHZ----------------
WDir240210270280260320320320310340330350320
WSpd5 6 6 6 7 10 13 14 13 10 10 10 4
WGst-- -- -- -- -- 14 18 22 -- -- -- -- --
Raw hourly METARs
KDTW 221453Z 24005KT 3SM HZ OVC006 18/15 A2999 RMK AO2 SLP155 T01780150 58001
KDTW 221553Z 21006KT 3SM HZ OVC010 19/16 A2999 RMK AO2 SLP155 T01940156
KDTW 221653Z 27006KT 3SM HZ SCT015 BKN060 OVC080 21/16 A2999 RMK AO2 SFC VIS 4 SLP153 T02110161
KDTW 221753Z 28006KT 5SM HZ FEW020 SCT050 BKN080 23/17 A2997 RMK AO2 SLP147 T02330172 10233 20139 58007
KDTW 221853Z 26007KT 6SM HZ FEW020 BKN050 OVC080 23/17 A2995 RMK AO2 SLP139 T02330167
KDTW 221953Z 32010G14KT 8SM SCT030 BKN060 24/17 A2993 RMK AO2 LTG DSNT E RAB1859E32 SLP135 P0005 T02440172
KDTW 222053Z 32013G18KT 10SM SCT030 SCT060 23/16 A2993 RMK AO2 RAB28E41 SLP135 P0000 60005 T02330161 55012
KDTW 222153Z 32014G22KT 10SM BKN030 BKN060 21/14 A2996 RMK AO2 SLP145 T02110144
KDTW 222253Z 31013KT 10SM BKN025 BKN060 19/13 A2998 RMK AO2 SLP150 T01940133
KDTW 222353Z 34010KT 10SM BKN025 OVC035 18/13 A2999 RMK AO2 SLP155 60005 T01830128 10250 20183 51018
KDTW 230053Z 33010KT 10SM SCT025 BKN030 17/12 A3000 RMK AO2 SLP159 T01720122
KDTW 230153Z 35010KT 10SM FEW020 SCT025 BKN030 17/11 A3002 RMK AO2 SLP165 T01670111
KDTW 230253Z 32004KT 10SM FEW025 SCT035 15/11 A3005 RMK AO2 SLP176 T01500111 53020



Page loaded:  03:22 UTC  |   08:22 PM Pacific  |   09:22 PM Mountain  |   10:22 PM Central  |   11:22 PM Eastern

 

ADVISORIES

FORECASTS

FORECASTS

OBSERVATIONS

USER TOOLS

ABOUT US